sensor_id;sensor_type;location;lat;lon;timestamp;temperature;humidity
42135;DHT22;28312;43.460;11.810;2024-01-06T00:01:54;12.70;85.20
42135;DHT22;28312;43.460;11.810;2024-01-06T00:05:57;12.70;85.60
42135;DHT22;28312;43.460;11.810;2024-01-06T00:10:03;12.70;86.10
42135;DHT22;28312;43.460;11.810;2024-01-06T00:14:07;12.70;86.70
42135;DHT22;28312;43.460;11.810;2024-01-06T00:18:10;12.70;87.30
42135;DHT22;28312;43.460;11.810;2024-01-06T00:22:14;12.70;87.70
42135;DHT22;28312;43.460;11.810;2024-01-06T00:26:18;12.70;88.10
42135;DHT22;28312;43.460;11.810;2024-01-06T00:30:22;12.60;88.40
42135;DHT22;28312;43.460;11.810;2024-01-06T00:34:26;12.60;88.70
42135;DHT22;28312;43.460;11.810;2024-01-06T00:38:30;12.60;88.90
42135;DHT22;28312;43.460;11.810;2024-01-06T00:42:33;12.50;89.10
42135;DHT22;28312;43.460;11.810;2024-01-06T00:46:37;12.60;89.20
42135;DHT22;28312;43.460;11.810;2024-01-06T00:50:41;12.60;89.40
42135;DHT22;28312;43.460;11.810;2024-01-06T00:54:44;12.60;89.40
42135;DHT22;28312;43.460;11.810;2024-01-06T00:58:48;12.60;89.50
42135;DHT22;28312;43.460;11.810;2024-01-06T01:02:51;12.60;89.60
42135;DHT22;28312;43.460;11.810;2024-01-06T01:06:55;12.60;89.60
42135;DHT22;28312;43.460;11.810;2024-01-06T01:10:59;12.60;89.70
42135;DHT22;28312;43.460;11.810;2024-01-06T01:15:02;12.60;89.80
42135;DHT22;28312;43.460;11.810;2024-01-06T01:19:06;12.60;89.90
42135;DHT22;28312;43.460;11.810;2024-01-06T01:23:10;12.50;89.90
42135;DHT22;28312;43.460;11.810;2024-01-06T01:27:14;12.60;89.90
42135;DHT22;28312;43.460;11.810;2024-01-06T01:31:17;12.60;89.90
42135;DHT22;28312;43.460;11.810;2024-01-06T01:35:22;12.60;89.90
42135;DHT22;28312;43.460;11.810;2024-01-06T01:39:26;12.60;89.90
42135;DHT22;28312;43.460;11.810;2024-01-06T01:43:30;12.60;90.00
42135;DHT22;28312;43.460;11.810;2024-01-06T01:47:33;12.60;90.00
42135;DHT22;28312;43.460;11.810;2024-01-06T01:51:37;12.70;90.00
42135;DHT22;28312;43.460;11.810;2024-01-06T01:55:42;12.70;90.00
42135;DHT22;28312;43.460;11.810;2024-01-06T01:59:47;12.60;90.00
42135;DHT22;28312;43.460;11.810;2024-01-06T02:03:51;12.70;90.00
42135;DHT22;28312;43.460;11.810;2024-01-06T02:07:56;12.70;90.00
42135;DHT22;28312;43.460;11.810;2024-01-06T02:12:00;12.70;89.90
42135;DHT22;28312;43.460;11.810;2024-01-06T02:16:05;12.70;90.00
42135;DHT22;28312;43.460;11.810;2024-01-06T02:20:09;12.70;89.90
42135;DHT22;28312;43.460;11.810;2024-01-06T02:24:14;12.70;89.90
42135;DHT22;28312;43.460;11.810;2024-01-06T02:28:18;12.70;89.90
42135;DHT22;28312;43.460;11.810;2024-01-06T02:32:21;12.70;89.90
42135;DHT22;28312;43.460;11.810;2024-01-06T02:36:25;12.70;89.90
42135;DHT22;28312;43.460;11.810;2024-01-06T02:40:28;12.60;89.90
42135;DHT22;28312;43.460;11.810;2024-01-06T02:44:35;12.60;90.00
42135;DHT22;28312;43.460;11.810;2024-01-06T02:48:39;12.60;90.00
42135;DHT22;28312;43.460;11.810;2024-01-06T02:52:44;12.60;90.00
42135;DHT22;28312;43.460;11.810;2024-01-06T02:56:51;12.60;90.00
42135;DHT22;28312;43.460;11.810;2024-01-06T03:00:54;12.60;90.00
42135;DHT22;28312;43.460;11.810;2024-01-06T03:04:58;12.60;90.10
42135;DHT22;28312;43.460;11.810;2024-01-06T03:09:01;12.60;90.10
42135;DHT22;28312;43.460;11.810;2024-01-06T03:13:05;12.60;90.10
42135;DHT22;28312;43.460;11.810;2024-01-06T03:17:09;12.60;90.20
42135;DHT22;28312;43.460;11.810;2024-01-06T03:21:17;12.60;90.20
42135;DHT22;28312;43.460;11.810;2024-01-06T03:25:21;12.60;90.20
42135;DHT22;28312;43.460;11.810;2024-01-06T03:29:25;12.60;90.20
42135;DHT22;28312;43.460;11.810;2024-01-06T03:33:28;12.60;90.20
42135;DHT22;28312;43.460;11.810;2024-01-06T03:37:33;12.60;90.30
42135;DHT22;28312;43.460;11.810;2024-01-06T03:41:36;12.60;90.30
42135;DHT22;28312;43.460;11.810;2024-01-06T03:45:41;12.70;90.30
42135;DHT22;28312;43.460;11.810;2024-01-06T03:49:44;12.70;90.30
42135;DHT22;28312;43.460;11.810;2024-01-06T03:53:48;12.70;90.40
42135;DHT22;28312;43.460;11.810;2024-01-06T03:57:52;12.70;90.40
42135;DHT22;28312;43.460;11.810;2024-01-06T04:01:55;12.70;90.50
42135;DHT22;28312;43.460;11.810;2024-01-06T04:05:59;12.70;90.50
42135;DHT22;28312;43.460;11.810;2024-01-06T04:10:03;12.70;90.50
42135;DHT22;28312;43.460;11.810;2024-01-06T04:14:07;12.70;90.50
42135;DHT22;28312;43.460;11.810;2024-01-06T04:18:11;12.80;90.50
42135;DHT22;28312;43.460;11.810;2024-01-06T04:22:15;12.80;90.40
42135;DHT22;28312;43.460;11.810;2024-01-06T04:26:21;12.80;90.40
42135;DHT22;28312;43.460;11.810;2024-01-06T04:30:25;12.80;90.40
42135;DHT22;28312;43.460;11.810;2024-01-06T04:34:29;12.90;90.40
42135;DHT22;28312;43.460;11.810;2024-01-06T04:38:33;12.90;90.40
42135;DHT22;28312;43.460;11.810;2024-01-06T04:42:36;12.90;90.40
42135;DHT22;28312;43.460;11.810;2024-01-06T04:46:40;12.90;90.30
42135;DHT22;28312;43.460;11.810;2024-01-06T04:50:43;12.90;90.30
42135;DHT22;28312;43.460;11.810;2024-01-06T04:54:47;12.90;90.20
42135;DHT22;28312;43.460;11.810;2024-01-06T04:58:50;12.90;90.30
42135;DHT22;28312;43.460;11.810;2024-01-06T05:02:54;12.90;90.30
42135;DHT22;28312;43.460;11.810;2024-01-06T05:06:58;12.90;90.30
42135;DHT22;28312;43.460;11.810;2024-01-06T05:11:01;12.80;90.30
42135;DHT22;28312;43.460;11.810;2024-01-06T05:15:05;12.80;90.30
42135;DHT22;28312;43.460;11.810;2024-01-06T05:19:09;12.80;90.40
42135;DHT22;28312;43.460;11.810;2024-01-06T05:23:13;12.80;90.40
42135;DHT22;28312;43.460;11.810;2024-01-06T05:27:19;12.70;90.50
42135;DHT22;28312;43.460;11.810;2024-01-06T05:31:23;12.70;90.50
42135;DHT22;28312;43.460;11.810;2024-01-06T05:35:26;12.70;90.40
42135;DHT22;28312;43.460;11.810;2024-01-06T05:39:30;12.70;90.40
42135;DHT22;28312;43.460;11.810;2024-01-06T05:43:34;12.60;90.50
42135;DHT22;28312;43.460;11.810;2024-01-06T05:47:41;12.50;90.60
42135;DHT22;28312;43.460;11.810;2024-01-06T05:51:45;12.50;90.90
42135;DHT22;28312;43.460;11.810;2024-01-06T05:55:49;12.40;90.90
42135;DHT22;28312;43.460;11.810;2024-01-06T05:59:53;12.30;91.00
42135;DHT22;28312;43.460;11.810;2024-01-06T06:03:57;12.30;91.10
42135;DHT22;28312;43.460;11.810;2024-01-06T06:08:01;12.30;91.30
42135;DHT22;28312;43.460;11.810;2024-01-06T06:12:05;12.20;91.40
42135;DHT22;28312;43.460;11.810;2024-01-06T06:16:11;12.30;91.50
42135;DHT22;28312;43.460;11.810;2024-01-06T06:20:15;12.30;91.60
42135;DHT22;28312;43.460;11.810;2024-01-06T06:24:19;12.30;91.60
42135;DHT22;28312;43.460;11.810;2024-01-06T06:28:23;12.30;91.60
42135;DHT22;28312;43.460;11.810;2024-01-06T06:32:26;12.30;91.70
42135;DHT22;28312;43.460;11.810;2024-01-06T06:36:31;12.20;91.60
42135;DHT22;28312;43.460;11.810;2024-01-06T06:40:39;12.20;91.70
42135;DHT22;28312;43.460;11.810;2024-01-06T06:44:42;12.20;91.70
42135;DHT22;28312;43.460;11.810;2024-01-06T06:48:46;12.20;91.70
42135;DHT22;28312;43.460;11.810;2024-01-06T06:52:49;12.20;91.70
42135;DHT22;28312;43.460;11.810;2024-01-06T06:56:53;12.20;91.90
42135;DHT22;28312;43.460;11.810;2024-01-06T07:00:57;12.20;91.90
42135;DHT22;28312;43.460;11.810;2024-01-06T07:05:01;12.20;91.90
42135;DHT22;28312;43.460;11.810;2024-01-06T07:09:05;12.20;91.90
42135;DHT22;28312;43.460;11.810;2024-01-06T07:13:09;12.20;92.00
42135;DHT22;28312;43.460;11.810;2024-01-06T07:17:12;12.20;92.00
42135;DHT22;28312;43.460;11.810;2024-01-06T07:21:20;12.20;92.10
42135;DHT22;28312;43.460;11.810;2024-01-06T07:25:24;12.20;92.20
42135;DHT22;28312;43.460;11.810;2024-01-06T07:29:28;12.20;92.10
42135;DHT22;28312;43.460;11.810;2024-01-06T07:33:33;12.30;92.10
42135;DHT22;28312;43.460;11.810;2024-01-06T07:37:37;12.30;92.00
42135;DHT22;28312;43.460;11.810;2024-01-06T07:41:40;12.30;92.00
42135;DHT22;28312;43.460;11.810;2024-01-06T07:45:44;12.30;92.00
42135;DHT22;28312;43.460;11.810;2024-01-06T07:49:48;12.20;91.90
42135;DHT22;28312;43.460;11.810;2024-01-06T07:53:52;12.20;91.70
42135;DHT22;28312;43.460;11.810;2024-01-06T07:57:55;12.20;91.80
42135;DHT22;28312;43.460;11.810;2024-01-06T08:01:59;12.20;91.70
42135;DHT22;28312;43.460;11.810;2024-01-06T08:06:03;12.20;91.70
42135;DHT22;28312;43.460;11.810;2024-01-06T08:10:07;12.10;91.70
42135;DHT22;28312;43.460;11.810;2024-01-06T08:14:12;12.00;91.80
42135;DHT22;28312;43.460;11.810;2024-01-06T08:18:16;12.00;91.80
42135;DHT22;28312;43.460;11.810;2024-01-06T08:22:21;12.00;91.80
42135;DHT22;28312;43.460;11.810;2024-01-06T08:26:26;11.90;91.80
42135;DHT22;28312;43.460;11.810;2024-01-06T08:30:30;12.00;91.90
42135;DHT22;28312;43.460;11.810;2024-01-06T08:34:33;12.00;92.00
42135;DHT22;28312;43.460;11.810;2024-01-06T08:38:37;12.00;92.10
42135;DHT22;28312;43.460;11.810;2024-01-06T08:42:41;12.10;92.30
42135;DHT22;28312;43.460;11.810;2024-01-06T08:46:44;12.10;92.40
42135;DHT22;28312;43.460;11.810;2024-01-06T08:50:52;12.20;92.50
42135;DHT22;28312;43.460;11.810;2024-01-06T08:54:56;12.30;92.60
42135;DHT22;28312;43.460;11.810;2024-01-06T08:59:00;12.30;92.60
42135;DHT22;28312;43.460;11.810;2024-01-06T09:03:04;12.40;92.60
42135;DHT22;28312;43.460;11.810;2024-01-06T09:07:07;12.50;92.80
42135;DHT22;28312;43.460;11.810;2024-01-06T09:11:11;12.60;93.00
42135;DHT22;28312;43.460;11.810;2024-01-06T09:15:15;12.70;93.20
42135;DHT22;28312;43.460;11.810;2024-01-06T09:19:19;12.90;93.30
42135;DHT22;28312;43.460;11.810;2024-01-06T09:23:23;13.10;93.30
42135;DHT22;28312;43.460;11.810;2024-01-06T09:27:29;13.20;93.20
42135;DHT22;28312;43.460;11.810;2024-01-06T09:31:35;13.30;93.00
42135;DHT22;28312;43.460;11.810;2024-01-06T09:35:41;13.30;92.60
42135;DHT22;28312;43.460;11.810;2024-01-06T09:39:52;13.30;92.10
42135;DHT22;28312;43.460;11.810;2024-01-06T09:43:59;13.20;91.90
42135;DHT22;28312;43.460;11.810;2024-01-06T09:48:23;13.10;91.80
42135;DHT22;28312;43.460;11.810;2024-01-06T09:52:39;13.00;91.70
42135;DHT22;28312;43.460;11.810;2024-01-06T09:56:45;12.90;91.60
42135;DHT22;28312;43.460;11.810;2024-01-06T10:00:50;13.00;91.80
42135;DHT22;28312;43.460;11.810;2024-01-06T10:04:54;12.90;91.80
42135;DHT22;28312;43.460;11.810;2024-01-06T10:08:58;12.90;91.90
42135;DHT22;28312;43.460;11.810;2024-01-06T10:13:01;13.00;91.90
42135;DHT22;28312;43.460;11.810;2024-01-06T10:17:08;13.00;92.00
42135;DHT22;28312;43.460;11.810;2024-01-06T10:21:12;13.00;91.80
42135;DHT22;28312;43.460;11.810;2024-01-06T10:25:16;13.00;91.70
42135;DHT22;28312;43.460;11.810;2024-01-06T10:29:20;12.90;91.50
42135;DHT22;28312;43.460;11.810;2024-01-06T10:33:25;12.90;91.60
42135;DHT22;28312;43.460;11.810;2024-01-06T10:37:30;12.80;91.70
42135;DHT22;28312;43.460;11.810;2024-01-06T10:41:34;12.80;91.80
42135;DHT22;28312;43.460;11.810;2024-01-06T10:45:38;12.70;91.90
42135;DHT22;28312;43.460;11.810;2024-01-06T10:49:43;12.70;92.00
42135;DHT22;28312;43.460;11.810;2024-01-06T10:53:48;12.70;92.10
42135;DHT22;28312;43.460;11.810;2024-01-06T10:57:53;12.70;92.10
42135;DHT22;28312;43.460;11.810;2024-01-06T11:01:58;12.70;92.10
42135;DHT22;28312;43.460;11.810;2024-01-06T11:06:03;12.70;92.20
42135;DHT22;28312;43.460;11.810;2024-01-06T11:10:24;12.70;92.10
42135;DHT22;28312;43.460;11.810;2024-01-06T11:14:28;12.70;92.10
42135;DHT22;28312;43.460;11.810;2024-01-06T11:18:35;12.70;92.30
42135;DHT22;28312;43.460;11.810;2024-01-06T11:22:41;12.70;92.40
42135;DHT22;28312;43.460;11.810;2024-01-06T11:26:45;12.70;92.60
42135;DHT22;28312;43.460;11.810;2024-01-06T11:31:08;12.80;92.70
42135;DHT22;28312;43.460;11.810;2024-01-06T11:35:14;12.90;92.70
42135;DHT22;28312;43.460;11.810;2024-01-06T11:39:44;12.90;92.70
42135;DHT22;28312;43.460;11.810;2024-01-06T11:43:48;13.00;92.70
42135;DHT22;28312;43.460;11.810;2024-01-06T11:48:00;13.00;92.70
42135;DHT22;28312;43.460;11.810;2024-01-06T11:52:06;13.00;92.70
42135;DHT22;28312;43.460;11.810;2024-01-06T11:56:10;13.10;92.80
42135;DHT22;28312;43.460;11.810;2024-01-06T12:00:14;13.10;92.80
42135;DHT22;28312;43.460;11.810;2024-01-06T12:04:18;13.20;92.90
42135;DHT22;28312;43.460;11.810;2024-01-06T12:08:22;13.20;92.80
42135;DHT22;28312;43.460;11.810;2024-01-06T12:12:26;13.20;92.60
42135;DHT22;28312;43.460;11.810;2024-01-06T12:16:30;13.20;92.60
42135;DHT22;28312;43.460;11.810;2024-01-06T12:20:35;13.20;92.50
42135;DHT22;28312;43.460;11.810;2024-01-06T12:24:39;13.10;92.40
42135;DHT22;28312;43.460;11.810;2024-01-06T12:28:45;13.10;92.60
42135;DHT22;28312;43.460;11.810;2024-01-06T12:32:50;13.10;92.80
42135;DHT22;28312;43.460;11.810;2024-01-06T12:36:56;13.20;93.00
42135;DHT22;28312;43.460;11.810;2024-01-06T12:41:00;13.30;93.00
42135;DHT22;28312;43.460;11.810;2024-01-06T12:45:05;13.30;92.70
42135;DHT22;28312;43.460;11.810;2024-01-06T12:49:09;13.30;92.50
42135;DHT22;28312;43.460;11.810;2024-01-06T12:53:14;13.30;92.60
42135;DHT22;28312;43.460;11.810;2024-01-06T12:57:20;13.30;92.60
42135;DHT22;28312;43.460;11.810;2024-01-06T13:01:24;13.30;92.60
42135;DHT22;28312;43.460;11.810;2024-01-06T13:05:28;13.30;92.60
42135;DHT22;28312;43.460;11.810;2024-01-06T13:09:32;13.30;92.80
42135;DHT22;28312;43.460;11.810;2024-01-06T13:13:35;13.40;93.00
42135;DHT22;28312;43.460;11.810;2024-01-06T13:17:39;13.50;93.00
42135;DHT22;28312;43.460;11.810;2024-01-06T13:21:50;13.70;93.40
42135;DHT22;28312;43.460;11.810;2024-01-06T13:25:53;13.80;93.30
42135;DHT22;28312;43.460;11.810;2024-01-06T13:29:57;13.90;92.90
42135;DHT22;28312;43.460;11.810;2024-01-06T13:34:02;13.90;92.60
42135;DHT22;28312;43.460;11.810;2024-01-06T13:38:06;13.80;92.60
42135;DHT22;28312;43.460;11.810;2024-01-06T13:42:09;13.80;92.70
42135;DHT22;28312;43.460;11.810;2024-01-06T13:46:13;13.90;92.80
42135;DHT22;28312;43.460;11.810;2024-01-06T13:50:17;13.90;92.70
42135;DHT22;28312;43.460;11.810;2024-01-06T13:54:23;13.90;92.80
42135;DHT22;28312;43.460;11.810;2024-01-06T13:58:27;13.90;93.00
42135;DHT22;28312;43.460;11.810;2024-01-06T14:02:30;13.90;92.90
42135;DHT22;28312;43.460;11.810;2024-01-06T14:06:34;13.90;92.80
42135;DHT22;28312;43.460;11.810;2024-01-06T14:10:38;13.90;92.90
42135;DHT22;28312;43.460;11.810;2024-01-06T14:14:42;13.90;92.80
42135;DHT22;28312;43.460;11.810;2024-01-06T14:18:45;13.80;92.60
42135;DHT22;28312;43.460;11.810;2024-01-06T14:22:49;13.80;92.70
42135;DHT22;28312;43.460;11.810;2024-01-06T14:26:53;13.80;92.70
42135;DHT22;28312;43.460;11.810;2024-01-06T14:30:59;13.80;92.80
42135;DHT22;28312;43.460;11.810;2024-01-06T14:35:06;13.80;92.90
42135;DHT22;28312;43.460;11.810;2024-01-06T14:39:10;13.80;92.90
42135;DHT22;28312;43.460;11.810;2024-01-06T14:43:14;13.80;92.80
42135;DHT22;28312;43.460;11.810;2024-01-06T14:47:18;13.80;92.70
42135;DHT22;28312;43.460;11.810;2024-01-06T14:51:22;13.70;92.70
42135;DHT22;28312;43.460;11.810;2024-01-06T14:55:25;13.70;92.60
42135;DHT22;28312;43.460;11.810;2024-01-06T14:59:29;13.70;92.60
42135;DHT22;28312;43.460;11.810;2024-01-06T15:03:33;13.60;92.50
42135;DHT22;28312;43.460;11.810;2024-01-06T15:07:37;13.50;92.60
42135;DHT22;28312;43.460;11.810;2024-01-06T15:11:41;13.40;92.50
42135;DHT22;28312;43.460;11.810;2024-01-06T15:15:44;13.30;92.60
42135;DHT22;28312;43.460;11.810;2024-01-06T15:19:53;13.30;92.60
42135;DHT22;28312;43.460;11.810;2024-01-06T15:23:56;13.30;92.70
42135;DHT22;28312;43.460;11.810;2024-01-06T15:28:01;13.20;92.70
42135;DHT22;28312;43.460;11.810;2024-01-06T15:32:05;13.20;92.70
42135;DHT22;28312;43.460;11.810;2024-01-06T15:36:09;13.20;92.70
42135;DHT22;28312;43.460;11.810;2024-01-06T15:40:13;13.20;92.60
42135;DHT22;28312;43.460;11.810;2024-01-06T15:44:17;13.10;92.40
42135;DHT22;28312;43.460;11.810;2024-01-06T15:48:22;13.00;92.40
42135;DHT22;28312;43.460;11.810;2024-01-06T15:52:28;13.00;92.40
42135;DHT22;28312;43.460;11.810;2024-01-06T15:56:31;12.90;92.30
42135;DHT22;28312;43.460;11.810;2024-01-06T16:00:35;12.80;92.30
42135;DHT22;28312;43.460;11.810;2024-01-06T16:04:39;12.80;92.20
42135;DHT22;28312;43.460;11.810;2024-01-06T16:08:43;12.70;92.00
42135;DHT22;28312;43.460;11.810;2024-01-06T16:12:47;12.70;92.10
42135;DHT22;28312;43.460;11.810;2024-01-06T16:16:53;12.60;92.10
42135;DHT22;28312;43.460;11.810;2024-01-06T16:20:56;12.50;92.00
42135;DHT22;28312;43.460;11.810;2024-01-06T16:25:02;12.50;92.20
42135;DHT22;28312;43.460;11.810;2024-01-06T16:29:05;12.50;92.10
42135;DHT22;28312;43.460;11.810;2024-01-06T16:33:09;12.50;92.10
42135;DHT22;28312;43.460;11.810;2024-01-06T16:37:14;12.50;91.90
42135;DHT22;28312;43.460;11.810;2024-01-06T16:41:20;12.40;91.80
42135;DHT22;28312;43.460;11.810;2024-01-06T16:45:30;12.30;91.60
42135;DHT22;28312;43.460;11.810;2024-01-06T16:49:35;12.20;91.50
42135;DHT22;28312;43.460;11.810;2024-01-06T16:53:38;12.20;91.30
42135;DHT22;28312;43.460;11.810;2024-01-06T16:57:42;12.00;91.10
42135;DHT22;28312;43.460;11.810;2024-01-06T17:01:45;11.90;90.90
42135;DHT22;28312;43.460;11.810;2024-01-06T17:05:49;11.80;91.00
42135;DHT22;28312;43.460;11.810;2024-01-06T17:09:53;11.70;90.90
42135;DHT22;28312;43.460;11.810;2024-01-06T17:13:58;11.70;90.80
42135;DHT22;28312;43.460;11.810;2024-01-06T17:18:01;11.60;90.80
42135;DHT22;28312;43.460;11.810;2024-01-06T17:22:09;11.50;90.90
42135;DHT22;28312;43.460;11.810;2024-01-06T17:26:13;11.50;91.10
42135;DHT22;28312;43.460;11.810;2024-01-06T17:30:17;11.50;91.20
42135;DHT22;28312;43.460;11.810;2024-01-06T17:34:21;11.50;91.10
42135;DHT22;28312;43.460;11.810;2024-01-06T17:38:25;11.40;91.00
42135;DHT22;28312;43.460;11.810;2024-01-06T17:42:29;11.40;90.90
42135;DHT22;28312;43.460;11.810;2024-01-06T17:46:33;11.30;90.60
42135;DHT22;28312;43.460;11.810;2024-01-06T17:50:37;11.20;90.50
42135;DHT22;28312;43.460;11.810;2024-01-06T17:54:41;11.10;90.80
42135;DHT22;28312;43.460;11.810;2024-01-06T17:58:46;11.10;91.00
42135;DHT22;28312;43.460;11.810;2024-01-06T18:02:49;11.00;90.90
42135;DHT22;28312;43.460;11.810;2024-01-06T18:06:54;10.90;91.00
42135;DHT22;28312;43.460;11.810;2024-01-06T18:10:58;10.90;91.00
42135;DHT22;28312;43.460;11.810;2024-01-06T18:15:02;10.80;91.10
42135;DHT22;28312;43.460;11.810;2024-01-06T18:19:07;10.80;91.30
42135;DHT22;28312;43.460;11.810;2024-01-06T18:23:12;10.70;91.30
42135;DHT22;28312;43.460;11.810;2024-01-06T18:27:15;10.80;91.40
42135;DHT22;28312;43.460;11.810;2024-01-06T18:31:20;10.80;91.40
42135;DHT22;28312;43.460;11.810;2024-01-06T18:35:25;10.70;91.20
42135;DHT22;28312;43.460;11.810;2024-01-06T18:39:29;10.70;91.20
42135;DHT22;28312;43.460;11.810;2024-01-06T18:43:33;10.70;91.00
42135;DHT22;28312;43.460;11.810;2024-01-06T18:47:37;10.60;90.70
42135;DHT22;28312;43.460;11.810;2024-01-06T18:51:41;10.50;90.80
42135;DHT22;28312;43.460;11.810;2024-01-06T18:55:44;10.40;91.00
42135;DHT22;28312;43.460;11.810;2024-01-06T18:59:48;10.50;91.20
42135;DHT22;28312;43.460;11.810;2024-01-06T19:03:52;10.50;91.20
42135;DHT22;28312;43.460;11.810;2024-01-06T19:07:56;10.50;91.40
42135;DHT22;28312;43.460;11.810;2024-01-06T19:12:00;10.50;91.50
42135;DHT22;28312;43.460;11.810;2024-01-06T19:16:05;10.50;91.50
42135;DHT22;28312;43.460;11.810;2024-01-06T19:20:10;10.50;91.60
42135;DHT22;28312;43.460;11.810;2024-01-06T19:24:14;10.50;91.80
42135;DHT22;28312;43.460;11.810;2024-01-06T19:28:33;10.50;91.90
42135;DHT22;28312;43.460;11.810;2024-01-06T19:32:38;10.60;92.10
42135;DHT22;28312;43.460;11.810;2024-01-06T19:36:42;10.60;92.20
42135;DHT22;28312;43.460;11.810;2024-01-06T19:40:45;10.60;92.10
42135;DHT22;28312;43.460;11.810;2024-01-06T19:44:49;10.60;92.10
42135;DHT22;28312;43.460;11.810;2024-01-06T19:48:53;10.70;92.10
42135;DHT22;28312;43.460;11.810;2024-01-06T19:52:59;10.70;92.00
42135;DHT22;28312;43.460;11.810;2024-01-06T19:57:03;10.70;91.80
42135;DHT22;28312;43.460;11.810;2024-01-06T20:01:06;10.70;91.60
42135;DHT22;28312;43.460;11.810;2024-01-06T20:05:10;10.70;91.50
42135;DHT22;28312;43.460;11.810;2024-01-06T20:09:15;10.70;91.60
42135;DHT22;28312;43.460;11.810;2024-01-06T20:13:19;10.60;91.50
42135;DHT22;28312;43.460;11.810;2024-01-06T20:17:23;10.60;91.60
42135;DHT22;28312;43.460;11.810;2024-01-06T20:21:27;10.60;91.80
42135;DHT22;28312;43.460;11.810;2024-01-06T20:25:31;10.60;91.90
42135;DHT22;28312;43.460;11.810;2024-01-06T20:29:35;10.60;91.90
42135;DHT22;28312;43.460;11.810;2024-01-06T20:33:38;10.70;91.80
42135;DHT22;28312;43.460;11.810;2024-01-06T20:37:42;10.70;91.70
42135;DHT22;28312;43.460;11.810;2024-01-06T20:41:45;10.70;91.50
42135;DHT22;28312;43.460;11.810;2024-01-06T20:45:49;10.70;91.50
42135;DHT22;28312;43.460;11.810;2024-01-06T20:49:55;10.70;91.50
42135;DHT22;28312;43.460;11.810;2024-01-06T20:53:59;10.60;91.30
42135;DHT22;28312;43.460;11.810;2024-01-06T20:58:03;10.60;91.30
42135;DHT22;28312;43.460;11.810;2024-01-06T21:02:07;10.50;91.60
42135;DHT22;28312;43.460;11.810;2024-01-06T21:06:11;10.60;91.70
42135;DHT22;28312;43.460;11.810;2024-01-06T21:10:14;10.60;91.60
42135;DHT22;28312;43.460;11.810;2024-01-06T21:14:18;10.50;91.30
42135;DHT22;28312;43.460;11.810;2024-01-06T21:18:22;10.50;91.30
42135;DHT22;28312;43.460;11.810;2024-01-06T21:22:25;10.50;91.30
42135;DHT22;28312;43.460;11.810;2024-01-06T21:26:29;10.50;91.30
42135;DHT22;28312;43.460;11.810;2024-01-06T21:30:34;10.40;91.40
42135;DHT22;28312;43.460;11.810;2024-01-06T21:34:38;10.50;91.40
42135;DHT22;28312;43.460;11.810;2024-01-06T21:38:41;10.40;91.50
42135;DHT22;28312;43.460;11.810;2024-01-06T21:42:48;10.50;91.60
42135;DHT22;28312;43.460;11.810;2024-01-06T21:46:52;10.50;91.80
42135;DHT22;28312;43.460;11.810;2024-01-06T21:50:58;10.50;91.90
42135;DHT22;28312;43.460;11.810;2024-01-06T21:55:02;10.50;92.00
42135;DHT22;28312;43.460;11.810;2024-01-06T21:59:05;10.60;92.00
42135;DHT22;28312;43.460;11.810;2024-01-06T22:03:11;10.60;91.90
42135;DHT22;28312;43.460;11.810;2024-01-06T22:07:17;10.60;91.90
42135;DHT22;28312;43.460;11.810;2024-01-06T22:11:21;10.50;91.80
42135;DHT22;28312;43.460;11.810;2024-01-06T22:15:25;10.40;91.90
42135;DHT22;28312;43.460;11.810;2024-01-06T22:19:30;10.40;92.10
42135;DHT22;28312;43.460;11.810;2024-01-06T22:23:35;10.40;92.20
42135;DHT22;28312;43.460;11.810;2024-01-06T22:27:38;10.40;92.20
42135;DHT22;28312;43.460;11.810;2024-01-06T22:31:42;10.40;92.30
42135;DHT22;28312;43.460;11.810;2024-01-06T22:35:47;10.40;92.20
42135;DHT22;28312;43.460;11.810;2024-01-06T22:39:51;10.40;92.10
42135;DHT22;28312;43.460;11.810;2024-01-06T22:43:55;10.40;92.20
42135;DHT22;28312;43.460;11.810;2024-01-06T22:47:59;10.30;92.00
42135;DHT22;28312;43.460;11.810;2024-01-06T22:52:03;10.30;92.20
42135;DHT22;28312;43.460;11.810;2024-01-06T22:56:10;10.30;92.10
42135;DHT22;28312;43.460;11.810;2024-01-06T23:00:14;10.30;92.20
42135;DHT22;28312;43.460;11.810;2024-01-06T23:04:20;10.30;92.20
42135;DHT22;28312;43.460;11.810;2024-01-06T23:08:28;10.30;92.30
42135;DHT22;28312;43.460;11.810;2024-01-06T23:12:32;10.30;92.40
42135;DHT22;28312;43.460;11.810;2024-01-06T23:16:35;10.30;92.40
42135;DHT22;28312;43.460;11.810;2024-01-06T23:20:39;10.30;92.30
42135;DHT22;28312;43.460;11.810;2024-01-06T23:24:43;10.30;92.30
42135;DHT22;28312;43.460;11.810;2024-01-06T23:28:49;10.30;92.30
42135;DHT22;28312;43.460;11.810;2024-01-06T23:32:53;10.30;92.10
42135;DHT22;28312;43.460;11.810;2024-01-06T23:36:57;10.30;91.90
42135;DHT22;28312;43.460;11.810;2024-01-06T23:41:01;10.30;91.90
42135;DHT22;28312;43.460;11.810;2024-01-06T23:45:05;10.30;91.80
42135;DHT22;28312;43.460;11.810;2024-01-06T23:49:13;10.20;91.70
42135;DHT22;28312;43.460;11.810;2024-01-06T23:53:17;10.20;91.80
42135;DHT22;28312;43.460;11.810;2024-01-06T23:57:21;10.20;91.70
